sensor_id;sensor_type;location;lat;lon;timestamp;P1;durP1;ratioP1;P2;durP2;ratioP2
33501;SDS011;22396;51.070;4.974;2023-09-18T00:00:16;13.38;;;6.53;;
33501;SDS011;22396;51.070;4.974;2023-09-18T00:02:42;17.70;;;7.00;;
33501;SDS011;22396;51.070;4.974;2023-09-18T00:05:07;11.25;;;6.68;;
33501;SDS011;22396;51.070;4.974;2023-09-18T00:07:33;15.70;;;5.72;;
33501;SDS011;22396;51.070;4.974;2023-09-18T00:09:58;12.95;;;6.95;;
33501;SDS011;22396;51.070;4.974;2023-09-18T00:12:24;9.15;;;5.97;;
33501;SDS011;22396;51.070;4.974;2023-09-18T00:14:52;11.18;;;6.80;;
33501;SDS011;22396;51.070;4.974;2023-09-18T00:17:20;12.20;;;6.13;;
33501;SDS011;22396;51.070;4.974;2023-09-18T00:19:47;9.90;;;6.35;;
33501;SDS011;22396;51.070;4.974;2023-09-18T00:22:13;13.43;;;6.80;;
33501;SDS011;22396;51.070;4.974;2023-09-18T00:24:40;11.38;;;5.90;;
33501;SDS011;22396;51.070;4.974;2023-09-18T00:27:06;11.85;;;6.35;;
33501;SDS011;22396;51.070;4.974;2023-09-18T00:29:31;12.38;;;6.82;;
33501;SDS011;22396;51.070;4.974;2023-09-18T00:31:57;10.68;;;6.05;;
33501;SDS011;22396;51.070;4.974;2023-09-18T00:34:22;17.65;;;6.60;;
33501;SDS011;22396;51.070;4.974;2023-09-18T00:36:47;14.07;;;6.95;;
33501;SDS011;22396;51.070;4.974;2023-09-18T00:39:13;12.48;;;6.50;;
33501;SDS011;22396;51.070;4.974;2023-09-18T00:41:39;13.63;;;6.30;;
33501;SDS011;22396;51.070;4.974;2023-09-18T00:44:06;20.38;;;6.80;;
33501;SDS011;22396;51.070;4.974;2023-09-18T00:46:31;12.45;;;7.00;;
33501;SDS011;22396;51.070;4.974;2023-09-18T00:48:57;13.52;;;6.70;;
33501;SDS011;22396;51.070;4.974;2023-09-18T00:51:22;12.15;;;6.55;;
33501;SDS011;22396;51.070;4.974;2023-09-18T00:53:47;14.02;;;6.63;;
33501;SDS011;22396;51.070;4.974;2023-09-18T00:56:16;15.45;;;7.18;;
33501;SDS011;22396;51.070;4.974;2023-09-18T00:58:42;13.68;;;6.63;;
33501;SDS011;22396;51.070;4.974;2023-09-18T01:01:07;11.05;;;6.25;;
33501;SDS011;22396;51.070;4.974;2023-09-18T01:03:34;12.13;;;6.07;;
33501;SDS011;22396;51.070;4.974;2023-09-18T01:05:59;12.30;;;6.68;;
33501;SDS011;22396;51.070;4.974;2023-09-18T01:08:27;12.05;;;6.60;;
33501;SDS011;22396;51.070;4.974;2023-09-18T01:13:45;10.00;;;6.40;;
33501;SDS011;22396;51.070;4.974;2023-09-18T01:19:11;12.23;;;6.68;;
33501;SDS011;22396;51.070;4.974;2023-09-18T01:21:36;14.65;;;6.85;;
33501;SDS011;22396;51.070;4.974;2023-09-18T01:24:02;18.95;;;6.60;;
33501;SDS011;22396;51.070;4.974;2023-09-18T01:26:27;17.42;;;6.88;;
33501;SDS011;22396;51.070;4.974;2023-09-18T01:28:53;21.35;;;7.80;;
33501;SDS011;22396;51.070;4.974;2023-09-18T01:31:19;16.27;;;7.32;;
33501;SDS011;22396;51.070;4.974;2023-09-18T01:33:50;14.77;;;7.47;;
33501;SDS011;22396;51.070;4.974;2023-09-18T01:36:15;19.60;;;8.50;;
33501;SDS011;22396;51.070;4.974;2023-09-18T01:38:41;14.18;;;6.50;;
33501;SDS011;22396;51.070;4.974;2023-09-18T01:41:07;12.77;;;6.32;;
33501;SDS011;22396;51.070;4.974;2023-09-18T01:43:34;13.93;;;6.45;;
33501;SDS011;22396;51.070;4.974;2023-09-18T01:46:00;11.27;;;6.38;;
33501;SDS011;22396;51.070;4.974;2023-09-18T01:48:25;15.23;;;6.90;;
33501;SDS011;22396;51.070;4.974;2023-09-18T01:50:50;18.95;;;7.10;;
33501;SDS011;22396;51.070;4.974;2023-09-18T01:53:16;16.50;;;6.57;;
33501;SDS011;22396;51.070;4.974;2023-09-18T01:55:41;12.88;;;7.38;;
33501;SDS011;22396;51.070;4.974;2023-09-18T01:58:09;11.75;;;7.60;;
33501;SDS011;22396;51.070;4.974;2023-09-18T02:00:34;14.52;;;7.35;;
33501;SDS011;22396;51.070;4.974;2023-09-18T02:02:59;14.48;;;7.40;;
33501;SDS011;22396;51.070;4.974;2023-09-18T02:05:25;16.42;;;7.45;;
33501;SDS011;22396;51.070;4.974;2023-09-18T02:07:50;13.10;;;7.15;;
33501;SDS011;22396;51.070;4.974;2023-09-18T02:10:18;16.75;;;7.25;;
33501;SDS011;22396;51.070;4.974;2023-09-18T02:12:44;19.10;;;8.40;;
33501;SDS011;22396;51.070;4.974;2023-09-18T02:15:09;16.50;;;7.30;;
33501;SDS011;22396;51.070;4.974;2023-09-18T02:17:36;15.23;;;7.75;;
33501;SDS011;22396;51.070;4.974;2023-09-18T02:20:01;12.75;;;7.07;;
33501;SDS011;22396;51.070;4.974;2023-09-18T02:22:36;17.60;;;7.60;;
33501;SDS011;22396;51.070;4.974;2023-09-18T02:25:03;17.23;;;8.18;;
33501;SDS011;22396;51.070;4.974;2023-09-18T02:27:28;18.30;;;8.88;;
33501;SDS011;22396;51.070;4.974;2023-09-18T02:29:53;16.70;;;9.15;;
33501;SDS011;22396;51.070;4.974;2023-09-18T02:32:21;19.95;;;9.07;;
33501;SDS011;22396;51.070;4.974;2023-09-18T02:34:46;22.77;;;9.15;;
33501;SDS011;22396;51.070;4.974;2023-09-18T02:37:12;18.63;;;9.85;;
33501;SDS011;22396;51.070;4.974;2023-09-18T02:39:37;19.48;;;9.60;;
33501;SDS011;22396;51.070;4.974;2023-09-18T02:42:02;15.63;;;9.07;;
33501;SDS011;22396;51.070;4.974;2023-09-18T02:44:27;22.65;;;9.60;;
33501;SDS011;22396;51.070;4.974;2023-09-18T02:46:55;14.40;;;8.02;;
33501;SDS011;22396;51.070;4.974;2023-09-18T02:49:21;19.05;;;8.93;;
33501;SDS011;22396;51.070;4.974;2023-09-18T02:51:49;17.92;;;8.95;;
33501;SDS011;22396;51.070;4.974;2023-09-18T02:54:15;16.23;;;8.93;;
33501;SDS011;22396;51.070;4.974;2023-09-18T02:56:40;13.75;;;8.70;;
33501;SDS011;22396;51.070;4.974;2023-09-18T02:59:06;15.93;;;8.50;;
33501;SDS011;22396;51.070;4.974;2023-09-18T03:01:31;18.50;;;9.55;;
33501;SDS011;22396;51.070;4.974;2023-09-18T03:03:56;17.45;;;7.95;;
33501;SDS011;22396;51.070;4.974;2023-09-18T03:06:22;15.35;;;7.55;;
33501;SDS011;22396;51.070;4.974;2023-09-18T03:08:49;17.73;;;8.57;;
33501;SDS011;22396;51.070;4.974;2023-09-18T03:11:15;18.08;;;8.40;;
33501;SDS011;22396;51.070;4.974;2023-09-18T03:13:47;14.93;;;8.35;;
33501;SDS011;22396;51.070;4.974;2023-09-18T03:16:12;18.08;;;8.65;;
33501;SDS011;22396;51.070;4.974;2023-09-18T03:18:37;15.70;;;8.77;;
33501;SDS011;22396;51.070;4.974;2023-09-18T03:21:03;16.40;;;8.38;;
33501;SDS011;22396;51.070;4.974;2023-09-18T03:23:29;14.43;;;7.85;;
33501;SDS011;22396;51.070;4.974;2023-09-18T03:25:54;13.35;;;7.70;;
33501;SDS011;22396;51.070;4.974;2023-09-18T03:28:19;17.00;;;8.02;;
33501;SDS011;22396;51.070;4.974;2023-09-18T03:30:45;14.18;;;7.47;;
33501;SDS011;22396;51.070;4.974;2023-09-18T03:33:10;13.10;;;7.20;;
33501;SDS011;22396;51.070;4.974;2023-09-18T03:35:44;12.63;;;6.60;;
33501;SDS011;22396;51.070;4.974;2023-09-18T03:38:10;9.32;;;6.45;;
33501;SDS011;22396;51.070;4.974;2023-09-18T03:40:35;16.45;;;6.40;;
33501;SDS011;22396;51.070;4.974;2023-09-18T03:43:00;20.80;;;6.32;;
33501;SDS011;22396;51.070;4.974;2023-09-18T03:45:25;11.63;;;5.65;;
33501;SDS011;22396;51.070;4.974;2023-09-18T03:47:51;17.17;;;5.20;;
33501;SDS011;22396;51.070;4.974;2023-09-18T03:50:16;9.32;;;4.40;;
33501;SDS011;22396;51.070;4.974;2023-09-18T03:52:42;11.07;;;4.88;;
33501;SDS011;22396;51.070;4.974;2023-09-18T03:55:07;12.18;;;4.90;;
33501;SDS011;22396;51.070;4.974;2023-09-18T03:57:33;11.18;;;4.60;;
33501;SDS011;22396;51.070;4.974;2023-09-18T03:59:58;6.97;;;3.90;;
33501;SDS011;22396;51.070;4.974;2023-09-18T04:02:24;8.23;;;4.28;;
33501;SDS011;22396;51.070;4.974;2023-09-18T04:04:53;10.27;;;4.68;;
33501;SDS011;22396;51.070;4.974;2023-09-18T04:07:19;10.77;;;4.43;;
33501;SDS011;22396;51.070;4.974;2023-09-18T04:09:44;11.55;;;4.47;;
33501;SDS011;22396;51.070;4.974;2023-09-18T04:12:12;8.20;;;4.30;;
33501;SDS011;22396;51.070;4.974;2023-09-18T04:14:38;9.57;;;3.83;;
33501;SDS011;22396;51.070;4.974;2023-09-18T04:17:03;6.15;;;3.42;;
33501;SDS011;22396;51.070;4.974;2023-09-18T04:19:29;8.55;;;3.90;;
33501;SDS011;22396;51.070;4.974;2023-09-18T04:21:55;8.25;;;3.65;;
33501;SDS011;22396;51.070;4.974;2023-09-18T04:24:21;5.03;;;2.55;;
33501;SDS011;22396;51.070;4.974;2023-09-18T04:26:46;9.18;;;3.20;;
33501;SDS011;22396;51.070;4.974;2023-09-18T04:29:11;4.85;;;2.25;;
33501;SDS011;22396;51.070;4.974;2023-09-18T04:31:37;12.55;;;2.30;;
33501;SDS011;22396;51.070;4.974;2023-09-18T04:34:05;5.00;;;2.50;;
33501;SDS011;22396;51.070;4.974;2023-09-18T04:36:30;10.15;;;2.40;;
33501;SDS011;22396;51.070;4.974;2023-09-18T04:38:56;7.72;;;1.98;;
33501;SDS011;22396;51.070;4.974;2023-09-18T04:41:22;4.72;;;2.17;;
33501;SDS011;22396;51.070;4.974;2023-09-18T04:43:47;2.85;;;1.90;;
33501;SDS011;22396;51.070;4.974;2023-09-18T04:46:15;3.95;;;1.83;;
33501;SDS011;22396;51.070;4.974;2023-09-18T04:48:40;3.80;;;1.63;;
33501;SDS011;22396;51.070;4.974;2023-09-18T04:51:06;2.80;;;1.65;;
33501;SDS011;22396;51.070;4.974;2023-09-18T04:53:31;3.28;;;1.52;;
33501;SDS011;22396;51.070;4.974;2023-09-18T04:55:59;5.22;;;2.15;;
33501;SDS011;22396;51.070;4.974;2023-09-18T04:58:25;5.88;;;1.90;;
33501;SDS011;22396;51.070;4.974;2023-09-18T05:00:57;3.15;;;1.90;;
33501;SDS011;22396;51.070;4.974;2023-09-18T05:05:48;4.50;;;1.50;;
33501;SDS011;22396;51.070;4.974;2023-09-18T05:08:13;4.07;;;1.45;;
33501;SDS011;22396;51.070;4.974;2023-09-18T05:10:39;8.40;;;1.55;;
33501;SDS011;22396;51.070;4.974;2023-09-18T05:13:04;3.63;;;1.70;;
33501;SDS011;22396;51.070;4.974;2023-09-18T05:15:30;6.25;;;1.52;;
33501;SDS011;22396;51.070;4.974;2023-09-18T05:17:55;6.43;;;1.80;;
33501;SDS011;22396;51.070;4.974;2023-09-18T05:20:22;3.92;;;1.42;;
33501;SDS011;22396;51.070;4.974;2023-09-18T05:22:55;2.83;;;1.42;;
33501;SDS011;22396;51.070;4.974;2023-09-18T05:25:28;5.93;;;1.30;;
33501;SDS011;22396;51.070;4.974;2023-09-18T05:27:57;9.63;;;1.58;;
33501;SDS011;22396;51.070;4.974;2023-09-18T05:30:26;2.85;;;1.23;;
33501;SDS011;22396;51.070;4.974;2023-09-18T05:32:56;6.90;;;1.55;;
33501;SDS011;22396;51.070;4.974;2023-09-18T05:35:21;3.75;;;1.60;;
33501;SDS011;22396;51.070;4.974;2023-09-18T05:37:48;2.75;;;1.70;;
33501;SDS011;22396;51.070;4.974;2023-09-18T05:40:14;4.00;;;1.35;;
33501;SDS011;22396;51.070;4.974;2023-09-18T05:42:40;5.00;;;1.58;;
33501;SDS011;22396;51.070;4.974;2023-09-18T05:45:18;7.35;;;1.45;;
33501;SDS011;22396;51.070;4.974;2023-09-18T05:47:43;3.58;;;1.50;;
33501;SDS011;22396;51.070;4.974;2023-09-18T05:50:12;2.25;;;1.30;;
33501;SDS011;22396;51.070;4.974;2023-09-18T05:52:41;8.82;;;1.48;;
33501;SDS011;22396;51.070;4.974;2023-09-18T05:55:07;4.38;;;1.52;;
33501;SDS011;22396;51.070;4.974;2023-09-18T05:57:33;6.90;;;2.50;;
33501;SDS011;22396;51.070;4.974;2023-09-18T05:59:59;6.63;;;1.50;;
33501;SDS011;22396;51.070;4.974;2023-09-18T06:02:24;2.60;;;1.38;;
33501;SDS011;22396;51.070;4.974;2023-09-18T06:04:55;6.03;;;1.42;;
33501;SDS011;22396;51.070;4.974;2023-09-18T06:07:25;4.65;;;1.77;;
33501;SDS011;22396;51.070;4.974;2023-09-18T06:09:51;3.60;;;1.52;;
33501;SDS011;22396;51.070;4.974;2023-09-18T06:12:16;2.80;;;1.30;;
33501;SDS011;22396;51.070;4.974;2023-09-18T06:14:41;2.97;;;1.88;;
33501;SDS011;22396;51.070;4.974;2023-09-18T06:17:07;5.10;;;1.50;;
33501;SDS011;22396;51.070;4.974;2023-09-18T06:19:39;6.88;;;1.45;;
33501;SDS011;22396;51.070;4.974;2023-09-18T06:22:05;2.83;;;1.27;;
33501;SDS011;22396;51.070;4.974;2023-09-18T06:24:30;6.88;;;1.80;;
33501;SDS011;22396;51.070;4.974;2023-09-18T06:26:55;7.18;;;1.40;;
33501;SDS011;22396;51.070;4.974;2023-09-18T06:29:20;2.38;;;1.38;;
33501;SDS011;22396;51.070;4.974;2023-09-18T06:31:46;5.22;;;1.50;;
33501;SDS011;22396;51.070;4.974;2023-09-18T06:34:11;4.38;;;1.30;;
33501;SDS011;22396;51.070;4.974;2023-09-18T06:36:39;5.80;;;1.60;;
33501;SDS011;22396;51.070;4.974;2023-09-18T06:39:05;4.13;;;1.60;;
33501;SDS011;22396;51.070;4.974;2023-09-18T06:41:31;6.50;;;1.75;;
33501;SDS011;22396;51.070;4.974;2023-09-18T06:43:56;4.15;;;1.60;;
33501;SDS011;22396;51.070;4.974;2023-09-18T06:46:22;3.67;;;1.30;;
33501;SDS011;22396;51.070;4.974;2023-09-18T06:48:47;4.00;;;1.58;;
33501;SDS011;22396;51.070;4.974;2023-09-18T06:51:14;7.15;;;1.42;;
33501;SDS011;22396;51.070;4.974;2023-09-18T06:53:39;8.75;;;1.92;;
33501;SDS011;22396;51.070;4.974;2023-09-18T06:56:12;3.70;;;1.63;;
33501;SDS011;22396;51.070;4.974;2023-09-18T06:58:37;2.17;;;1.13;;
33501;SDS011;22396;51.070;4.974;2023-09-18T07:01:03;7.18;;;1.60;;
33501;SDS011;22396;51.070;4.974;2023-09-18T07:03:32;4.70;;;1.70;;
33501;SDS011;22396;51.070;4.974;2023-09-18T07:05:59;3.58;;;1.60;;
33501;SDS011;22396;51.070;4.974;2023-09-18T07:08:25;5.25;;;1.48;;
33501;SDS011;22396;51.070;4.974;2023-09-18T07:10:50;3.17;;;1.67;;
33501;SDS011;22396;51.070;4.974;2023-09-18T07:13:18;6.63;;;1.60;;
33501;SDS011;22396;51.070;4.974;2023-09-18T07:15:44;3.42;;;1.30;;
33501;SDS011;22396;51.070;4.974;2023-09-18T07:18:09;4.25;;;1.63;;
33501;SDS011;22396;51.070;4.974;2023-09-18T07:20:39;6.70;;;1.60;;
33501;SDS011;22396;51.070;4.974;2023-09-18T07:23:07;5.32;;;1.55;;
33501;SDS011;22396;51.070;4.974;2023-09-18T07:25:32;5.97;;;1.55;;
33501;SDS011;22396;51.070;4.974;2023-09-18T07:27:57;6.13;;;1.42;;
33501;SDS011;22396;51.070;4.974;2023-09-18T07:30:23;3.80;;;1.40;;
33501;SDS011;22396;51.070;4.974;2023-09-18T07:32:52;3.70;;;1.27;;
33501;SDS011;22396;51.070;4.974;2023-09-18T07:35:20;4.95;;;1.60;;
33501;SDS011;22396;51.070;4.974;2023-09-18T07:37:48;4.82;;;1.50;;
33501;SDS011;22396;51.070;4.974;2023-09-18T07:40:16;3.65;;;1.83;;
33501;SDS011;22396;51.070;4.974;2023-09-18T07:42:41;3.65;;;1.50;;
33501;SDS011;22396;51.070;4.974;2023-09-18T07:45:09;5.07;;;1.98;;
33501;SDS011;22396;51.070;4.974;2023-09-18T07:47:34;6.03;;;1.83;;
33501;SDS011;22396;51.070;4.974;2023-09-18T07:49:59;5.75;;;1.67;;
33501;SDS011;22396;51.070;4.974;2023-09-18T07:52:24;2.78;;;1.67;;
33501;SDS011;22396;51.070;4.974;2023-09-18T07:54:50;4.50;;;1.63;;
33501;SDS011;22396;51.070;4.974;2023-09-18T07:57:15;8.25;;;1.58;;
33501;SDS011;22396;51.070;4.974;2023-09-18T07:59:40;5.97;;;1.52;;
33501;SDS011;22396;51.070;4.974;2023-09-18T08:02:07;7.15;;;1.50;;
33501;SDS011;22396;51.070;4.974;2023-09-18T08:04:37;5.80;;;1.60;;
33501;SDS011;22396;51.070;4.974;2023-09-18T08:07:08;6.38;;;1.80;;
33501;SDS011;22396;51.070;4.974;2023-09-18T08:09:33;5.40;;;1.90;;
33501;SDS011;22396;51.070;4.974;2023-09-18T08:12:05;5.38;;;2.55;;
33501;SDS011;22396;51.070;4.974;2023-09-18T08:14:31;8.20;;;1.85;;
33501;SDS011;22396;51.070;4.974;2023-09-18T08:17:00;6.97;;;2.15;;
33501;SDS011;22396;51.070;4.974;2023-09-18T08:19:25;3.65;;;1.70;;
33501;SDS011;22396;51.070;4.974;2023-09-18T08:21:54;7.72;;;1.90;;
33501;SDS011;22396;51.070;4.974;2023-09-18T08:24:24;5.03;;;1.63;;
33501;SDS011;22396;51.070;4.974;2023-09-18T08:26:50;5.32;;;1.70;;
33501;SDS011;22396;51.070;4.974;2023-09-18T08:29:15;2.42;;;1.60;;
33501;SDS011;22396;51.070;4.974;2023-09-18T08:31:41;9.85;;;2.20;;
33501;SDS011;22396;51.070;4.974;2023-09-18T08:34:06;5.88;;;1.75;;
33501;SDS011;22396;51.070;4.974;2023-09-18T08:36:31;7.28;;;2.03;;
33501;SDS011;22396;51.070;4.974;2023-09-18T08:38:57;4.97;;;1.92;;
33501;SDS011;22396;51.070;4.974;2023-09-18T08:41:23;14.70;;;1.80;;
33501;SDS011;22396;51.070;4.974;2023-09-18T08:43:51;7.75;;;2.25;;
33501;SDS011;22396;51.070;4.974;2023-09-18T08:46:17;4.35;;;1.92;;
33501;SDS011;22396;51.070;4.974;2023-09-18T08:48:42;6.47;;;1.83;;
33501;SDS011;22396;51.070;4.974;2023-09-18T08:51:09;6.68;;;1.50;;
33501;SDS011;22396;51.070;4.974;2023-09-18T08:53:36;4.93;;;1.67;;
33501;SDS011;22396;51.070;4.974;2023-09-18T08:56:03;8.10;;;2.10;;
33501;SDS011;22396;51.070;4.974;2023-09-18T08:58:32;4.18;;;1.88;;
33501;SDS011;22396;51.070;4.974;2023-09-18T09:00:59;3.50;;;1.63;;
33501;SDS011;22396;51.070;4.974;2023-09-18T09:03:29;4.38;;;1.70;;
33501;SDS011;22396;51.070;4.974;2023-09-18T09:05:54;3.88;;;2.15;;
33501;SDS011;22396;51.070;4.974;2023-09-18T09:08:25;11.20;;;2.08;;
33501;SDS011;22396;51.070;4.974;2023-09-18T09:10:50;4.00;;;1.90;;
33501;SDS011;22396;51.070;4.974;2023-09-18T09:13:15;5.68;;;2.20;;
33501;SDS011;22396;51.070;4.974;2023-09-18T09:15:45;4.35;;;2.03;;
33501;SDS011;22396;51.070;4.974;2023-09-18T09:18:11;6.35;;;2.10;;
33501;SDS011;22396;51.070;4.974;2023-09-18T09:20:37;5.25;;;2.08;;
33501;SDS011;22396;51.070;4.974;2023-09-18T09:23:02;6.68;;;2.22;;
33501;SDS011;22396;51.070;4.974;2023-09-18T09:25:28;7.50;;;2.50;;
33501;SDS011;22396;51.070;4.974;2023-09-18T09:27:58;8.90;;;2.50;;
33501;SDS011;22396;51.070;4.974;2023-09-18T09:30:24;5.97;;;2.60;;
33501;SDS011;22396;51.070;4.974;2023-09-18T09:32:51;9.52;;;2.42;;
33501;SDS011;22396;51.070;4.974;2023-09-18T09:35:21;7.78;;;2.33;;
33501;SDS011;22396;51.070;4.974;2023-09-18T09:37:47;8.35;;;2.60;;
33501;SDS011;22396;51.070;4.974;2023-09-18T09:40:12;7.80;;;2.40;;
33501;SDS011;22396;51.070;4.974;2023-09-18T09:42:42;4.60;;;1.90;;
33501;SDS011;22396;51.070;4.974;2023-09-18T09:45:12;3.78;;;2.00;;
33501;SDS011;22396;51.070;4.974;2023-09-18T09:47:38;3.30;;;2.10;;
33501;SDS011;22396;51.070;4.974;2023-09-18T09:50:11;7.28;;;2.58;;
33501;SDS011;22396;51.070;4.974;2023-09-18T09:52:42;5.18;;;2.33;;
33501;SDS011;22396;51.070;4.974;2023-09-18T09:55:22;6.45;;;2.38;;
33501;SDS011;22396;51.070;4.974;2023-09-18T09:57:48;5.18;;;2.28;;
33501;SDS011;22396;51.070;4.974;2023-09-18T10:00:14;7.78;;;2.55;;
33501;SDS011;22396;51.070;4.974;2023-09-18T10:03:10;5.28;;;2.08;;
33501;SDS011;22396;51.070;4.974;2023-09-18T10:05:37;6.70;;;2.45;;
33501;SDS011;22396;51.070;4.974;2023-09-18T10:08:04;11.38;;;2.90;;
33501;SDS011;22396;51.070;4.974;2023-09-18T10:10:33;7.32;;;2.60;;
33501;SDS011;22396;51.070;4.974;2023-09-18T10:13:32;9.75;;;3.30;;
33501;SDS011;22396;51.070;4.974;2023-09-18T10:15:50;5.60;;;2.55;;
33501;SDS011;22396;51.070;4.974;2023-09-18T10:26:32;6.50;;;2.35;;
33501;SDS011;22396;51.070;4.974;2023-09-18T10:29:03;4.25;;;2.15;;
33501;SDS011;22396;51.070;4.974;2023-09-18T10:31:30;5.60;;;2.28;;
33501;SDS011;22396;51.070;4.974;2023-09-18T10:33:57;7.05;;;2.35;;
33501;SDS011;22396;51.070;4.974;2023-09-18T10:36:25;5.28;;;2.10;;
33501;SDS011;22396;51.070;4.974;2023-09-18T10:38:50;7.13;;;2.45;;
33501;SDS011;22396;51.070;4.974;2023-09-18T10:41:17;4.45;;;2.10;;
33501;SDS011;22396;51.070;4.974;2023-09-18T10:43:45;5.60;;;2.30;;
33501;SDS011;22396;51.070;4.974;2023-09-18T10:46:11;5.05;;;2.00;;
33501;SDS011;22396;51.070;4.974;2023-09-18T10:48:44;5.95;;;2.25;;
33501;SDS011;22396;51.070;4.974;2023-09-18T10:51:11;16.63;;;2.47;;
33501;SDS011;22396;51.070;4.974;2023-09-18T10:53:39;6.22;;;2.28;;
33501;SDS011;22396;51.070;4.974;2023-09-18T10:56:04;7.30;;;2.17;;
33501;SDS011;22396;51.070;4.974;2023-09-18T10:58:30;3.58;;;2.20;;
33501;SDS011;22396;51.070;4.974;2023-09-18T11:01:04;6.30;;;2.13;;
33501;SDS011;22396;51.070;4.974;2023-09-18T11:03:33;3.25;;;2.10;;
33501;SDS011;22396;51.070;4.974;2023-09-18T11:06:06;4.68;;;2.20;;
33501;SDS011;22396;51.070;4.974;2023-09-18T11:08:36;5.32;;;2.28;;
33501;SDS011;22396;51.070;4.974;2023-09-18T11:11:08;5.55;;;2.00;;
33501;SDS011;22396;51.070;4.974;2023-09-18T11:13:50;5.00;;;2.50;;
33501;SDS011;22396;51.070;4.974;2023-09-18T11:18:50;9.07;;;1.98;;
33501;SDS011;22396;51.070;4.974;2023-09-18T11:21:17;5.18;;;2.00;;
33501;SDS011;22396;51.070;4.974;2023-09-18T11:23:46;5.78;;;2.10;;
33501;SDS011;22396;51.070;4.974;2023-09-18T11:26:22;4.88;;;2.10;;
33501;SDS011;22396;51.070;4.974;2023-09-18T11:28:48;6.22;;;1.90;;
33501;SDS011;22396;51.070;4.974;2023-09-18T11:31:15;4.53;;;2.28;;
33501;SDS011;22396;51.070;4.974;2023-09-18T11:33:41;5.13;;;2.25;;
33501;SDS011;22396;51.070;4.974;2023-09-18T11:36:13;3.15;;;1.75;;
33501;SDS011;22396;51.070;4.974;2023-09-18T11:39:01;4.40;;;2.10;;
33501;SDS011;22396;51.070;4.974;2023-09-18T11:41:32;2.92;;;1.95;;
33501;SDS011;22396;51.070;4.974;2023-09-18T11:46:38;3.85;;;2.10;;
33501;SDS011;22396;51.070;4.974;2023-09-18T11:49:05;4.15;;;1.92;;
33501;SDS011;22396;51.070;4.974;2023-09-18T11:51:31;5.85;;;1.92;;
33501;SDS011;22396;51.070;4.974;2023-09-18T11:53:56;4.72;;;2.10;;
33501;SDS011;22396;51.070;4.974;2023-09-18T11:56:22;4.60;;;2.05;;
33501;SDS011;22396;51.070;4.974;2023-09-18T11:58:48;6.00;;;2.08;;
33501;SDS011;22396;51.070;4.974;2023-09-18T12:01:14;3.83;;;1.98;;
33501;SDS011;22396;51.070;4.974;2023-09-18T12:03:40;7.55;;;2.00;;
33501;SDS011;22396;51.070;4.974;2023-09-18T12:06:06;6.13;;;2.40;;
33501;SDS011;22396;51.070;4.974;2023-09-18T12:08:31;7.35;;;2.10;;
33501;SDS011;22396;51.070;4.974;2023-09-18T12:11:00;3.08;;;1.85;;
33501;SDS011;22396;51.070;4.974;2023-09-18T12:13:30;5.68;;;2.00;;
33501;SDS011;22396;51.070;4.974;2023-09-18T12:15:58;2.67;;;1.80;;
33501;SDS011;22396;51.070;4.974;2023-09-18T12:18:24;6.82;;;1.98;;
33501;SDS011;22396;51.070;4.974;2023-09-18T12:20:50;7.22;;;2.00;;
33501;SDS011;22396;51.070;4.974;2023-09-18T12:23:16;4.50;;;2.13;;
33501;SDS011;22396;51.070;4.974;2023-09-18T12:25:44;5.35;;;2.17;;
33501;SDS011;22396;51.070;4.974;2023-09-18T12:28:10;3.95;;;1.85;;
33501;SDS011;22396;51.070;4.974;2023-09-18T12:30:43;7.03;;;1.85;;
33501;SDS011;22396;51.070;4.974;2023-09-18T12:33:08;4.35;;;1.98;;
33501;SDS011;22396;51.070;4.974;2023-09-18T12:35:34;3.55;;;1.95;;
33501;SDS011;22396;51.070;4.974;2023-09-18T12:37:59;8.65;;;2.00;;
33501;SDS011;22396;51.070;4.974;2023-09-18T12:40:29;4.43;;;2.10;;
33501;SDS011;22396;51.070;4.974;2023-09-18T12:42:58;4.00;;;2.22;;
33501;SDS011;22396;51.070;4.974;2023-09-18T12:45:24;5.53;;;1.90;;
33501;SDS011;22396;51.070;4.974;2023-09-18T12:47:50;5.40;;;1.92;;
33501;SDS011;22396;51.070;4.974;2023-09-18T12:50:16;7.63;;;2.00;;
33501;SDS011;22396;51.070;4.974;2023-09-18T12:52:41;8.02;;;2.10;;
33501;SDS011;22396;51.070;4.974;2023-09-18T12:55:07;10.18;;;2.22;;
33501;SDS011;22396;51.070;4.974;2023-09-18T12:57:33;4.40;;;1.85;;
33501;SDS011;22396;51.070;4.974;2023-09-18T12:59:58;6.65;;;1.95;;
33501;SDS011;22396;51.070;4.974;2023-09-18T13:02:23;3.95;;;1.92;;
33501;SDS011;22396;51.070;4.974;2023-09-18T13:04:55;6.05;;;1.48;;
33501;SDS011;22396;51.070;4.974;2023-09-18T13:07:22;4.85;;;1.40;;
33501;SDS011;22396;51.070;4.974;2023-09-18T13:10:00;8.73;;;1.65;;
33501;SDS011;22396;51.070;4.974;2023-09-18T13:12:39;4.38;;;1.55;;
33501;SDS011;22396;51.070;4.974;2023-09-18T13:15:04;11.20;;;1.90;;
33501;SDS011;22396;51.070;4.974;2023-09-18T13:17:43;3.08;;;1.05;;
33501;SDS011;22396;51.070;4.974;2023-09-18T13:20:16;2.20;;;1.48;;
33501;SDS011;22396;51.070;4.974;2023-09-18T13:22:47;2.78;;;1.35;;
33501;SDS011;22396;51.070;4.974;2023-09-18T13:25:18;5.18;;;1.52;;
33501;SDS011;22396;51.070;4.974;2023-09-18T13:27:44;5.85;;;1.35;;
33501;SDS011;22396;51.070;4.974;2023-09-18T13:30:09;2.53;;;1.50;;
33501;SDS011;22396;51.070;4.974;2023-09-18T13:32:38;2.55;;;1.25;;
33501;SDS011;22396;51.070;4.974;2023-09-18T13:35:03;3.17;;;1.42;;
33501;SDS011;22396;51.070;4.974;2023-09-18T13:37:31;5.45;;;1.52;;
33501;SDS011;22396;51.070;4.974;2023-09-18T13:39:56;3.95;;;1.45;;
33501;SDS011;22396;51.070;4.974;2023-09-18T13:42:22;2.38;;;0.98;;
33501;SDS011;22396;51.070;4.974;2023-09-18T13:44:47;1.70;;;0.98;;
33501;SDS011;22396;51.070;4.974;2023-09-18T13:47:14;2.58;;;1.30;;
33501;SDS011;22396;51.070;4.974;2023-09-18T13:49:40;3.03;;;1.23;;
33501;SDS011;22396;51.070;4.974;2023-09-18T13:52:05;2.53;;;1.17;;
33501;SDS011;22396;51.070;4.974;2023-09-18T13:54:30;2.78;;;1.30;;
33501;SDS011;22396;51.070;4.974;2023-09-18T13:56:59;1.83;;;1.17;;
33501;SDS011;22396;51.070;4.974;2023-09-18T13:59:24;3.30;;;1.60;;
33501;SDS011;22396;51.070;4.974;2023-09-18T14:01:50;4.32;;;1.38;;
33501;SDS011;22396;51.070;4.974;2023-09-18T14:04:17;5.07;;;1.33;;
33501;SDS011;22396;51.070;4.974;2023-09-18T14:06:45;3.42;;;1.30;;
33501;SDS011;22396;51.070;4.974;2023-09-18T14:09:11;5.38;;;1.38;;
33501;SDS011;22396;51.070;4.974;2023-09-18T14:11:36;2.80;;;1.42;;
33501;SDS011;22396;51.070;4.974;2023-09-18T14:14:03;2.45;;;1.30;;
33501;SDS011;22396;51.070;4.974;2023-09-18T14:16:30;4.40;;;1.30;;
33501;SDS011;22396;51.070;4.974;2023-09-18T14:18:59;6.40;;;1.40;;
33501;SDS011;22396;51.070;4.974;2023-09-18T14:21:24;4.00;;;1.30;;
33501;SDS011;22396;51.070;4.974;2023-09-18T14:23:49;1.77;;;1.02;;
33501;SDS011;22396;51.070;4.974;2023-09-18T14:26:17;2.42;;;1.13;;
33501;SDS011;22396;51.070;4.974;2023-09-18T14:28:42;2.65;;;1.20;;
33501;SDS011;22396;51.070;4.974;2023-09-18T14:31:09;3.33;;;1.00;;
33501;SDS011;22396;51.070;4.974;2023-09-18T14:33:35;4.28;;;1.40;;
33501;SDS011;22396;51.070;4.974;2023-09-18T14:36:01;3.50;;;1.20;;
33501;SDS011;22396;51.070;4.974;2023-09-18T14:38:28;3.20;;;1.23;;
33501;SDS011;22396;51.070;4.974;2023-09-18T14:40:53;3.28;;;1.10;;
33501;SDS011;22396;51.070;4.974;2023-09-18T14:43:25;3.92;;;1.27;;
33501;SDS011;22396;51.070;4.974;2023-09-18T14:45:50;1.98;;;1.15;;
33501;SDS011;22396;51.070;4.974;2023-09-18T14:48:17;2.88;;;1.30;;
33501;SDS011;22396;51.070;4.974;2023-09-18T14:50:42;1.92;;;0.90;;
33501;SDS011;22396;51.070;4.974;2023-09-18T14:53:10;3.70;;;1.48;;
33501;SDS011;22396;51.070;4.974;2023-09-18T14:55:35;4.70;;;1.40;;
33501;SDS011;22396;51.070;4.974;2023-09-18T14:58:01;3.67;;;1.25;;
33501;SDS011;22396;51.070;4.974;2023-09-18T15:00:26;3.15;;;1.25;;
33501;SDS011;22396;51.070;4.974;2023-09-18T15:02:51;2.38;;;1.40;;